sensor_id;sensor_type;location;lat;lon;timestamp;P1;durP1;ratioP1;P2;durP2;ratioP2
40074;SDS011;26529;51.530;11.754;2023-04-24T00:00:32;7.40;;;3.63;;
40074;SDS011;26529;51.530;11.754;2023-04-24T00:02:58;6.45;;;4.13;;
40074;SDS011;26529;51.530;11.754;2023-04-24T00:05:23;7.93;;;4.05;;
40074;SDS011;26529;51.530;11.754;2023-04-24T00:07:49;8.65;;;4.22;;
40074;SDS011;26529;51.530;11.754;2023-04-24T00:10:18;8.60;;;3.38;;
40074;SDS011;26529;51.530;11.754;2023-04-24T00:12:43;6.47;;;3.50;;
40074;SDS011;26529;51.530;11.754;2023-04-24T00:15:09;5.53;;;3.42;;
40074;SDS011;26529;51.530;11.754;2023-04-24T00:17:35;6.72;;;3.95;;
40074;SDS011;26529;51.530;11.754;2023-04-24T00:20:01;5.95;;;3.65;;
40074;SDS011;26529;51.530;11.754;2023-04-24T00:22:30;4.63;;;3.70;;
40074;SDS011;26529;51.530;11.754;2023-04-24T00:24:56;9.73;;;3.72;;
40074;SDS011;26529;51.530;11.754;2023-04-24T00:27:22;6.47;;;3.28;;
40074;SDS011;26529;51.530;11.754;2023-04-24T00:29:48;6.68;;;3.85;;
40074;SDS011;26529;51.530;11.754;2023-04-24T00:32:14;5.13;;;3.28;;
40074;SDS011;26529;51.530;11.754;2023-04-24T00:34:39;5.22;;;3.30;;
40074;SDS011;26529;51.530;11.754;2023-04-24T00:37:05;7.88;;;3.55;;
40074;SDS011;26529;51.530;11.754;2023-04-24T00:39:31;5.22;;;3.28;;
40074;SDS011;26529;51.530;11.754;2023-04-24T00:41:56;5.53;;;3.20;;
40074;SDS011;26529;51.530;11.754;2023-04-24T00:44:22;6.68;;;3.50;;
40074;SDS011;26529;51.530;11.754;2023-04-24T00:46:48;4.78;;;3.03;;
40074;SDS011;26529;51.530;11.754;2023-04-24T00:49:23;6.35;;;3.67;;
40074;SDS011;26529;51.530;11.754;2023-04-24T00:51:49;5.05;;;3.47;;
40074;SDS011;26529;51.530;11.754;2023-04-24T00:54:16;6.95;;;3.60;;
40074;SDS011;26529;51.530;11.754;2023-04-24T00:56:42;4.88;;;2.58;;
40074;SDS011;26529;51.530;11.754;2023-04-24T00:59:10;4.47;;;3.22;;
40074;SDS011;26529;51.530;11.754;2023-04-24T01:01:37;9.30;;;3.13;;
40074;SDS011;26529;51.530;11.754;2023-04-24T01:04:07;5.75;;;2.92;;
40074;SDS011;26529;51.530;11.754;2023-04-24T01:06:35;6.93;;;3.42;;
40074;SDS011;26529;51.530;11.754;2023-04-24T01:09:03;4.85;;;3.30;;
40074;SDS011;26529;51.530;11.754;2023-04-24T01:11:29;7.78;;;3.60;;
40074;SDS011;26529;51.530;11.754;2023-04-24T01:13:55;3.88;;;3.00;;
40074;SDS011;26529;51.530;11.754;2023-04-24T01:16:22;6.50;;;3.42;;
40074;SDS011;26529;51.530;11.754;2023-04-24T01:18:47;4.90;;;3.00;;
40074;SDS011;26529;51.530;11.754;2023-04-24T01:21:14;4.85;;;3.08;;
40074;SDS011;26529;51.530;11.754;2023-04-24T01:23:43;3.70;;;3.15;;
40074;SDS011;26529;51.530;11.754;2023-04-24T01:26:09;7.47;;;2.97;;
40074;SDS011;26529;51.530;11.754;2023-04-24T01:28:34;6.82;;;3.50;;
40074;SDS011;26529;51.530;11.754;2023-04-24T01:31:00;9.48;;;3.35;;
40074;SDS011;26529;51.530;11.754;2023-04-24T01:33:26;5.15;;;3.10;;
40074;SDS011;26529;51.530;11.754;2023-04-24T01:35:51;5.10;;;2.95;;
40074;SDS011;26529;51.530;11.754;2023-04-24T01:38:17;5.70;;;3.00;;
40074;SDS011;26529;51.530;11.754;2023-04-24T01:40:43;3.78;;;2.78;;
40074;SDS011;26529;51.530;11.754;2023-04-24T01:43:08;7.88;;;3.10;;
40074;SDS011;26529;51.530;11.754;2023-04-24T01:45:34;5.38;;;3.20;;
40074;SDS011;26529;51.530;11.754;2023-04-24T01:48:03;4.93;;;2.72;;
40074;SDS011;26529;51.530;11.754;2023-04-24T01:50:29;4.40;;;2.85;;
40074;SDS011;26529;51.530;11.754;2023-04-24T01:52:54;5.60;;;3.08;;
40074;SDS011;26529;51.530;11.754;2023-04-24T01:55:20;7.78;;;3.30;;
40074;SDS011;26529;51.530;11.754;2023-04-24T01:57:46;3.80;;;2.75;;
40074;SDS011;26529;51.530;11.754;2023-04-24T02:00:11;6.53;;;3.25;;
40074;SDS011;26529;51.530;11.754;2023-04-24T02:02:41;6.00;;;2.97;;
40074;SDS011;26529;51.530;11.754;2023-04-24T02:05:07;4.55;;;2.92;;
40074;SDS011;26529;51.530;11.754;2023-04-24T02:07:35;4.53;;;3.33;;
40074;SDS011;26529;51.530;11.754;2023-04-24T02:10:01;6.75;;;2.70;;
40074;SDS011;26529;51.530;11.754;2023-04-24T02:12:29;3.78;;;3.08;;
40074;SDS011;26529;51.530;11.754;2023-04-24T02:14:55;8.45;;;3.22;;
40074;SDS011;26529;51.530;11.754;2023-04-24T02:17:21;5.22;;;2.58;;
40074;SDS011;26529;51.530;11.754;2023-04-24T02:19:46;8.35;;;3.63;;
40074;SDS011;26529;51.530;11.754;2023-04-24T02:22:12;3.78;;;2.47;;
40074;SDS011;26529;51.530;11.754;2023-04-24T02:24:37;4.25;;;2.25;;
40074;SDS011;26529;51.530;11.754;2023-04-24T02:27:03;6.22;;;3.05;;
40074;SDS011;26529;51.530;11.754;2023-04-24T02:29:29;5.07;;;2.58;;
40074;SDS011;26529;51.530;11.754;2023-04-24T02:31:54;4.85;;;3.15;;
40074;SDS011;26529;51.530;11.754;2023-04-24T02:34:20;4.18;;;2.20;;
40074;SDS011;26529;51.530;11.754;2023-04-24T02:36:45;4.57;;;2.58;;
40074;SDS011;26529;51.530;11.754;2023-04-24T02:39:11;3.72;;;2.45;;
40074;SDS011;26529;51.530;11.754;2023-04-24T02:41:38;3.85;;;2.30;;
40074;SDS011;26529;51.530;11.754;2023-04-24T02:44:04;3.58;;;2.58;;
40074;SDS011;26529;51.530;11.754;2023-04-24T02:46:29;5.40;;;2.58;;
40074;SDS011;26529;51.530;11.754;2023-04-24T02:48:55;4.50;;;2.47;;
40074;SDS011;26529;51.530;11.754;2023-04-24T02:51:20;4.75;;;2.38;;
40074;SDS011;26529;51.530;11.754;2023-04-24T02:53:46;2.58;;;2.20;;
40074;SDS011;26529;51.530;11.754;2023-04-24T02:56:11;5.78;;;2.70;;
40074;SDS011;26529;51.530;11.754;2023-04-24T02:58:40;2.92;;;2.42;;
40074;SDS011;26529;51.530;11.754;2023-04-24T03:01:05;3.08;;;2.28;;
40074;SDS011;26529;51.530;11.754;2023-04-24T03:03:31;6.18;;;2.80;;
40074;SDS011;26529;51.530;11.754;2023-04-24T03:05:57;6.22;;;2.45;;
40074;SDS011;26529;51.530;11.754;2023-04-24T03:08:23;4.82;;;2.58;;
40074;SDS011;26529;51.530;11.754;2023-04-24T03:10:49;3.15;;;2.28;;
40074;SDS011;26529;51.530;11.754;2023-04-24T03:13:15;5.25;;;2.20;;
40074;SDS011;26529;51.530;11.754;2023-04-24T03:15:41;6.68;;;2.63;;
40074;SDS011;26529;51.530;11.754;2023-04-24T03:18:06;6.30;;;2.63;;
40074;SDS011;26529;51.530;11.754;2023-04-24T03:20:32;3.80;;;2.33;;
40074;SDS011;26529;51.530;11.754;2023-04-24T03:22:58;3.45;;;2.13;;
40074;SDS011;26529;51.530;11.754;2023-04-24T03:25:24;6.28;;;2.50;;
40074;SDS011;26529;51.530;11.754;2023-04-24T03:27:51;2.72;;;1.85;;
40074;SDS011;26529;51.530;11.754;2023-04-24T03:30:26;5.63;;;2.35;;
40074;SDS011;26529;51.530;11.754;2023-04-24T03:32:56;3.72;;;2.25;;
40074;SDS011;26529;51.530;11.754;2023-04-24T03:35:26;2.85;;;2.40;;
40074;SDS011;26529;51.530;11.754;2023-04-24T03:37:52;3.33;;;2.17;;
40074;SDS011;26529;51.530;11.754;2023-04-24T03:40:36;5.05;;;2.42;;
40074;SDS011;26529;51.530;11.754;2023-04-24T03:43:07;6.25;;;2.40;;
40074;SDS011;26529;51.530;11.754;2023-04-24T03:45:33;5.70;;;3.45;;
40074;SDS011;26529;51.530;11.754;2023-04-24T03:47:59;3.20;;;2.20;;
40074;SDS011;26529;51.530;11.754;2023-04-24T03:50:25;4.30;;;2.30;;
40074;SDS011;26529;51.530;11.754;2023-04-24T03:52:52;3.58;;;2.17;;
40074;SDS011;26529;51.530;11.754;2023-04-24T03:55:29;4.25;;;2.40;;
40074;SDS011;26529;51.530;11.754;2023-04-24T03:57:54;5.55;;;2.47;;
40074;SDS011;26529;51.530;11.754;2023-04-24T04:00:21;4.95;;;2.35;;
40074;SDS011;26529;51.530;11.754;2023-04-24T04:02:53;4.60;;;2.88;;
40074;SDS011;26529;51.530;11.754;2023-04-24T04:05:18;3.20;;;2.20;;
40074;SDS011;26529;51.530;11.754;2023-04-24T04:07:44;3.45;;;2.30;;
40074;SDS011;26529;51.530;11.754;2023-04-24T04:10:09;3.42;;;2.30;;
40074;SDS011;26529;51.530;11.754;2023-04-24T04:12:36;4.38;;;2.55;;
40074;SDS011;26529;51.530;11.754;2023-04-24T04:15:02;6.20;;;2.22;;
40074;SDS011;26529;51.530;11.754;2023-04-24T04:17:28;4.05;;;2.40;;
40074;SDS011;26529;51.530;11.754;2023-04-24T04:19:54;4.75;;;2.33;;
40074;SDS011;26529;51.530;11.754;2023-04-24T04:22:22;4.40;;;2.30;;
40074;SDS011;26529;51.530;11.754;2023-04-24T04:24:49;6.35;;;2.83;;
40074;SDS011;26529;51.530;11.754;2023-04-24T04:27:19;3.78;;;2.67;;
40074;SDS011;26529;51.530;11.754;2023-04-24T04:30:01;3.38;;;1.90;;
40074;SDS011;26529;51.530;11.754;2023-04-24T04:32:31;5.30;;;2.53;;
40074;SDS011;26529;51.530;11.754;2023-04-24T04:34:58;4.07;;;2.22;;
40074;SDS011;26529;51.530;11.754;2023-04-24T04:37:31;4.25;;;1.80;;
40074;SDS011;26529;51.530;11.754;2023-04-24T04:40:27;5.18;;;1.92;;
40074;SDS011;26529;51.530;11.754;2023-04-24T04:42:59;5.45;;;2.30;;
40074;SDS011;26529;51.530;11.754;2023-04-24T04:45:27;3.83;;;2.20;;
40074;SDS011;26529;51.530;11.754;2023-04-24T04:50:40;4.47;;;2.10;;
40074;SDS011;26529;51.530;11.754;2023-04-24T04:53:07;5.72;;;2.25;;
40074;SDS011;26529;51.530;11.754;2023-04-24T04:55:36;3.53;;;2.22;;
40074;SDS011;26529;51.530;11.754;2023-04-24T04:58:07;3.40;;;2.13;;
40074;SDS011;26529;51.530;11.754;2023-04-24T05:00:33;4.20;;;2.20;;
40074;SDS011;26529;51.530;11.754;2023-04-24T05:03:03;3.67;;;2.05;;
40074;SDS011;26529;51.530;11.754;2023-04-24T05:05:29;2.90;;;1.80;;
40074;SDS011;26529;51.530;11.754;2023-04-24T05:07:55;3.95;;;2.05;;
40074;SDS011;26529;51.530;11.754;2023-04-24T05:10:21;3.00;;;2.20;;
40074;SDS011;26529;51.530;11.754;2023-04-24T05:12:47;3.60;;;2.00;;
40074;SDS011;26529;51.530;11.754;2023-04-24T05:15:12;4.25;;;2.00;;
40074;SDS011;26529;51.530;11.754;2023-04-24T05:17:38;3.78;;;2.53;;
40074;SDS011;26529;51.530;11.754;2023-04-24T05:20:06;4.35;;;2.53;;
40074;SDS011;26529;51.530;11.754;2023-04-24T05:22:32;4.30;;;2.15;;
40074;SDS011;26529;51.530;11.754;2023-04-24T05:24:58;10.45;;;2.20;;
40074;SDS011;26529;51.530;11.754;2023-04-24T05:27:34;3.40;;;2.00;;
40074;SDS011;26529;51.530;11.754;2023-04-24T05:30:03;3.63;;;2.17;;
40074;SDS011;26529;51.530;11.754;2023-04-24T05:32:29;3.15;;;2.17;;
40074;SDS011;26529;51.530;11.754;2023-04-24T05:34:55;5.75;;;2.75;;
40074;SDS011;26529;51.530;11.754;2023-04-24T05:37:21;2.58;;;2.22;;
40074;SDS011;26529;51.530;11.754;2023-04-24T05:39:46;4.63;;;2.58;;
40074;SDS011;26529;51.530;11.754;2023-04-24T05:42:12;5.10;;;2.17;;
40074;SDS011;26529;51.530;11.754;2023-04-24T05:44:37;4.20;;;2.13;;
40074;SDS011;26529;51.530;11.754;2023-04-24T05:47:03;6.28;;;2.83;;
40074;SDS011;26529;51.530;11.754;2023-04-24T05:49:29;5.22;;;2.40;;
40074;SDS011;26529;51.530;11.754;2023-04-24T05:51:56;8.07;;;2.45;;
40074;SDS011;26529;51.530;11.754;2023-04-24T05:54:22;8.30;;;2.60;;
40074;SDS011;26529;51.530;11.754;2023-04-24T05:56:48;7.55;;;2.05;;
40074;SDS011;26529;51.530;11.754;2023-04-24T05:59:24;8.65;;;2.45;;
40074;SDS011;26529;51.530;11.754;2023-04-24T06:01:50;7.60;;;2.28;;
40074;SDS011;26529;51.530;11.754;2023-04-24T06:04:19;11.80;;;2.40;;
40074;SDS011;26529;51.530;11.754;2023-04-24T06:06:44;6.65;;;2.33;;
40074;SDS011;26529;51.530;11.754;2023-04-24T06:09:10;7.32;;;2.08;;
40074;SDS011;26529;51.530;11.754;2023-04-24T06:11:37;10.65;;;2.42;;
40074;SDS011;26529;51.530;11.754;2023-04-24T06:14:04;5.68;;;1.80;;
40074;SDS011;26529;51.530;11.754;2023-04-24T06:16:40;15.73;;;2.60;;
40074;SDS011;26529;51.530;11.754;2023-04-24T06:19:19;10.23;;;3.08;;
40074;SDS011;26529;51.530;11.754;2023-04-24T06:21:46;9.35;;;2.20;;
40074;SDS011;26529;51.530;11.754;2023-04-24T06:24:13;7.10;;;2.10;;
40074;SDS011;26529;51.530;11.754;2023-04-24T06:26:39;10.35;;;2.53;;
40074;SDS011;26529;51.530;11.754;2023-04-24T06:29:06;7.65;;;2.25;;
40074;SDS011;26529;51.530;11.754;2023-04-24T06:31:32;14.13;;;2.83;;
40074;SDS011;26529;51.530;11.754;2023-04-24T06:34:02;12.68;;;3.15;;
40074;SDS011;26529;51.530;11.754;2023-04-24T06:36:28;3.25;;;1.90;;
40074;SDS011;26529;51.530;11.754;2023-04-24T06:38:54;6.53;;;2.35;;
40074;SDS011;26529;51.530;11.754;2023-04-24T06:41:19;8.00;;;2.63;;
40074;SDS011;26529;51.530;11.754;2023-04-24T06:43:45;10.93;;;2.63;;
40074;SDS011;26529;51.530;11.754;2023-04-24T06:46:10;6.13;;;2.17;;
40074;SDS011;26529;51.530;11.754;2023-04-24T06:48:37;8.13;;;2.78;;
40074;SDS011;26529;51.530;11.754;2023-04-24T06:51:02;16.23;;;3.00;;
40074;SDS011;26529;51.530;11.754;2023-04-24T06:53:28;9.07;;;2.63;;
40074;SDS011;26529;51.530;11.754;2023-04-24T06:55:53;10.80;;;2.30;;
40074;SDS011;26529;51.530;11.754;2023-04-24T06:58:20;8.60;;;2.28;;
40074;SDS011;26529;51.530;11.754;2023-04-24T07:00:45;8.43;;;2.30;;
40074;SDS011;26529;51.530;11.754;2023-04-24T07:03:11;8.85;;;2.70;;
40074;SDS011;26529;51.530;11.754;2023-04-24T07:05:36;10.52;;;3.10;;
40074;SDS011;26529;51.530;11.754;2023-04-24T07:08:03;7.90;;;2.47;;
40074;SDS011;26529;51.530;11.754;2023-04-24T07:10:29;13.10;;;2.60;;
40074;SDS011;26529;51.530;11.754;2023-04-24T07:12:55;10.50;;;2.50;;
40074;SDS011;26529;51.530;11.754;2023-04-24T07:15:21;8.05;;;2.17;;
40074;SDS011;26529;51.530;11.754;2023-04-24T07:17:48;10.25;;;2.17;;
40074;SDS011;26529;51.530;11.754;2023-04-24T07:20:14;12.30;;;3.00;;
40074;SDS011;26529;51.530;11.754;2023-04-24T07:22:40;9.98;;;2.50;;
40074;SDS011;26529;51.530;11.754;2023-04-24T07:25:06;13.65;;;2.63;;
40074;SDS011;26529;51.530;11.754;2023-04-24T07:27:32;10.57;;;2.63;;
40074;SDS011;26529;51.530;11.754;2023-04-24T07:29:59;11.07;;;2.88;;
40074;SDS011;26529;51.530;11.754;2023-04-24T07:32:24;8.82;;;2.67;;
40074;SDS011;26529;51.530;11.754;2023-04-24T07:34:50;9.00;;;2.00;;
40074;SDS011;26529;51.530;11.754;2023-04-24T07:37:15;4.20;;;1.98;;
40074;SDS011;26529;51.530;11.754;2023-04-24T07:39:41;6.82;;;2.30;;
40074;SDS011;26529;51.530;11.754;2023-04-24T07:42:07;10.05;;;2.78;;
40074;SDS011;26529;51.530;11.754;2023-04-24T07:44:32;9.05;;;2.60;;
40074;SDS011;26529;51.530;11.754;2023-04-24T07:46:58;7.97;;;1.75;;
40074;SDS011;26529;51.530;11.754;2023-04-24T07:49:23;10.07;;;2.65;;
40074;SDS011;26529;51.530;11.754;2023-04-24T07:51:49;12.50;;;2.90;;
40074;SDS011;26529;51.530;11.754;2023-04-24T07:54:15;14.75;;;3.10;;
40074;SDS011;26529;51.530;11.754;2023-04-24T07:56:41;13.73;;;2.85;;
40074;SDS011;26529;51.530;11.754;2023-04-24T07:59:09;9.90;;;3.00;;
40074;SDS011;26529;51.530;11.754;2023-04-24T08:01:35;10.60;;;2.45;;
40074;SDS011;26529;51.530;11.754;2023-04-24T08:04:01;12.60;;;2.88;;
40074;SDS011;26529;51.530;11.754;2023-04-24T08:06:27;11.35;;;2.97;;
40074;SDS011;26529;51.530;11.754;2023-04-24T08:08:57;11.80;;;3.00;;
40074;SDS011;26529;51.530;11.754;2023-04-24T08:11:23;9.77;;;2.83;;
40074;SDS011;26529;51.530;11.754;2023-04-24T08:13:49;10.57;;;2.40;;
40074;SDS011;26529;51.530;11.754;2023-04-24T08:16:15;9.32;;;2.45;;
40074;SDS011;26529;51.530;11.754;2023-04-24T08:18:40;11.75;;;3.20;;
40074;SDS011;26529;51.530;11.754;2023-04-24T08:21:06;12.30;;;3.15;;
40074;SDS011;26529;51.530;11.754;2023-04-24T08:23:31;10.45;;;2.35;;
40074;SDS011;26529;51.530;11.754;2023-04-24T08:25:57;8.50;;;2.45;;
40074;SDS011;26529;51.530;11.754;2023-04-24T08:28:23;12.30;;;2.70;;
40074;SDS011;26529;51.530;11.754;2023-04-24T08:30:48;10.50;;;2.47;;
40074;SDS011;26529;51.530;11.754;2023-04-24T08:33:19;11.48;;;3.20;;
40074;SDS011;26529;51.530;11.754;2023-04-24T08:35:48;11.93;;;3.20;;
40074;SDS011;26529;51.530;11.754;2023-04-24T08:38:13;7.07;;;2.50;;
40074;SDS011;26529;51.530;11.754;2023-04-24T08:40:39;7.65;;;2.15;;
40074;SDS011;26529;51.530;11.754;2023-04-24T08:43:05;8.98;;;2.53;;
40074;SDS011;26529;51.530;11.754;2023-04-24T08:45:32;11.70;;;2.88;;
40074;SDS011;26529;51.530;11.754;2023-04-24T08:47:58;8.23;;;2.58;;
40074;SDS011;26529;51.530;11.754;2023-04-24T08:50:24;10.75;;;2.40;;
40074;SDS011;26529;51.530;11.754;2023-04-24T08:52:50;9.43;;;2.60;;
40074;SDS011;26529;51.530;11.754;2023-04-24T08:55:18;11.73;;;2.35;;
40074;SDS011;26529;51.530;11.754;2023-04-24T08:57:45;15.30;;;2.90;;
40074;SDS011;26529;51.530;11.754;2023-04-24T09:00:16;8.93;;;2.15;;
40074;SDS011;26529;51.530;11.754;2023-04-24T09:02:42;8.77;;;2.42;;
40074;SDS011;26529;51.530;11.754;2023-04-24T09:05:11;10.90;;;2.38;;
40074;SDS011;26529;51.530;11.754;2023-04-24T09:07:39;10.90;;;2.45;;
40074;SDS011;26529;51.530;11.754;2023-04-24T09:10:04;8.77;;;2.45;;
40074;SDS011;26529;51.530;11.754;2023-04-24T09:12:32;6.57;;;2.10;;
40074;SDS011;26529;51.530;11.754;2023-04-24T09:14:59;8.30;;;2.25;;
40074;SDS011;26529;51.530;11.754;2023-04-24T09:17:28;8.50;;;2.35;;
40074;SDS011;26529;51.530;11.754;2023-04-24T09:19:55;7.68;;;2.10;;
40074;SDS011;26529;51.530;11.754;2023-04-24T09:22:21;7.88;;;2.08;;
40074;SDS011;26529;51.530;11.754;2023-04-24T09:24:46;5.03;;;2.30;;
40074;SDS011;26529;51.530;11.754;2023-04-24T09:27:13;6.15;;;2.13;;
40074;SDS011;26529;51.530;11.754;2023-04-24T09:29:52;7.45;;;1.80;;
40074;SDS011;26529;51.530;11.754;2023-04-24T09:32:20;12.70;;;2.22;;
40074;SDS011;26529;51.530;11.754;2023-04-24T09:34:47;10.60;;;2.17;;
40074;SDS011;26529;51.530;11.754;2023-04-24T09:37:29;9.50;;;2.38;;
40074;SDS011;26529;51.530;11.754;2023-04-24T09:42:59;8.63;;;2.63;;
40074;SDS011;26529;51.530;11.754;2023-04-24T09:45:37;7.72;;;2.47;;
40074;SDS011;26529;51.530;11.754;2023-04-24T09:48:08;7.95;;;2.75;;
40074;SDS011;26529;51.530;11.754;2023-04-24T09:50:35;6.85;;;2.38;;
40074;SDS011;26529;51.530;11.754;2023-04-24T09:53:01;8.18;;;2.30;;
40074;SDS011;26529;51.530;11.754;2023-04-24T09:55:29;10.88;;;2.35;;
40074;SDS011;26529;51.530;11.754;2023-04-24T09:57:58;6.93;;;2.15;;
40074;SDS011;26529;51.530;11.754;2023-04-24T10:00:31;6.88;;;2.17;;
40074;SDS011;26529;51.530;11.754;2023-04-24T10:03:01;6.93;;;2.35;;
40074;SDS011;26529;51.530;11.754;2023-04-24T10:05:29;3.83;;;1.98;;
40074;SDS011;26529;51.530;11.754;2023-04-24T10:08:00;8.10;;;2.00;;
40074;SDS011;26529;51.530;11.754;2023-04-24T10:10:31;6.55;;;2.63;;
40074;SDS011;26529;51.530;11.754;2023-04-24T10:12:58;8.88;;;2.22;;
40074;SDS011;26529;51.530;11.754;2023-04-24T10:15:24;5.78;;;1.73;;
40074;SDS011;26529;51.530;11.754;2023-04-24T10:17:51;8.02;;;2.20;;
40074;SDS011;26529;51.530;11.754;2023-04-24T10:20:18;6.35;;;1.92;;
40074;SDS011;26529;51.530;11.754;2023-04-24T10:22:51;5.82;;;1.75;;
40074;SDS011;26529;51.530;11.754;2023-04-24T10:25:23;7.47;;;1.90;;
40074;SDS011;26529;51.530;11.754;2023-04-24T10:27:51;7.18;;;2.13;;
40074;SDS011;26529;51.530;11.754;2023-04-24T10:30:18;5.32;;;2.10;;
40074;SDS011;26529;51.530;11.754;2023-04-24T10:32:45;5.90;;;1.98;;
40074;SDS011;26529;51.530;11.754;2023-04-24T10:35:11;7.88;;;2.78;;
40074;SDS011;26529;51.530;11.754;2023-04-24T10:37:48;12.02;;;2.15;;
40074;SDS011;26529;51.530;11.754;2023-04-24T10:40:25;14.57;;;2.45;;
40074;SDS011;26529;51.530;11.754;2023-04-24T10:42:53;6.85;;;2.13;;
40074;SDS011;26529;51.530;11.754;2023-04-24T10:45:19;6.25;;;2.33;;
40074;SDS011;26529;51.530;11.754;2023-04-24T10:50:46;7.30;;;1.90;;
40074;SDS011;26529;51.530;11.754;2023-04-24T10:53:23;5.68;;;2.00;;
40074;SDS011;26529;51.530;11.754;2023-04-24T10:55:57;9.88;;;2.38;;
40074;SDS011;26529;51.530;11.754;2023-04-24T10:58:24;5.20;;;1.73;;
40074;SDS011;26529;51.530;11.754;2023-04-24T11:01:02;8.10;;;2.30;;
40074;SDS011;26529;51.530;11.754;2023-04-24T11:03:28;6.32;;;2.03;;
40074;SDS011;26529;51.530;11.754;2023-04-24T11:05:57;6.97;;;1.98;;
40074;SDS011;26529;51.530;11.754;2023-04-24T11:08:25;7.18;;;2.08;;
40074;SDS011;26529;51.530;11.754;2023-04-24T11:16:25;6.68;;;2.47;;
40074;SDS011;26529;51.530;11.754;2023-04-24T11:21:39;5.00;;;1.80;;
40074;SDS011;26529;51.530;11.754;2023-04-24T11:24:25;7.03;;;1.65;;
40074;SDS011;26529;51.530;11.754;2023-04-24T11:26:51;5.35;;;1.80;;
40074;SDS011;26529;51.530;11.754;2023-04-24T11:29:22;3.50;;;1.92;;
40074;SDS011;26529;51.530;11.754;2023-04-24T11:31:48;4.65;;;2.00;;
40074;SDS011;26529;51.530;11.754;2023-04-24T11:34:16;9.20;;;2.10;;
40074;SDS011;26529;51.530;11.754;2023-04-24T11:36:43;4.57;;;2.33;;
40074;SDS011;26529;51.530;11.754;2023-04-24T11:39:10;7.28;;;2.17;;
40074;SDS011;26529;51.530;11.754;2023-04-24T11:41:37;4.30;;;1.88;;
40074;SDS011;26529;51.530;11.754;2023-04-24T11:44:03;6.05;;;1.20;;
40074;SDS011;26529;51.530;11.754;2023-04-24T11:46:31;3.80;;;1.70;;
40074;SDS011;26529;51.530;11.754;2023-04-24T11:48:57;8.15;;;2.00;;
40074;SDS011;26529;51.530;11.754;2023-04-24T11:51:25;8.25;;;1.90;;
40074;SDS011;26529;51.530;11.754;2023-04-24T11:53:52;5.40;;;2.08;;
40074;SDS011;26529;51.530;11.754;2023-04-24T11:56:19;6.95;;;1.80;;
40074;SDS011;26529;51.530;11.754;2023-04-24T11:58:47;4.90;;;1.90;;
40074;SDS011;26529;51.530;11.754;2023-04-24T12:01:12;3.40;;;1.58;;
40074;SDS011;26529;51.530;11.754;2023-04-24T12:03:38;3.92;;;2.17;;
40074;SDS011;26529;51.530;11.754;2023-04-24T12:06:04;5.30;;;2.60;;
40074;SDS011;26529;51.530;11.754;2023-04-24T12:08:34;4.25;;;1.65;;
40074;SDS011;26529;51.530;11.754;2023-04-24T12:11:00;4.32;;;1.60;;
40074;SDS011;26529;51.530;11.754;2023-04-24T12:13:26;3.25;;;1.85;;
40074;SDS011;26529;51.530;11.754;2023-04-24T12:15:52;7.18;;;1.85;;
40074;SDS011;26529;51.530;11.754;2023-04-24T12:18:17;6.30;;;1.98;;
40074;SDS011;26529;51.530;11.754;2023-04-24T12:20:43;6.63;;;1.60;;
40074;SDS011;26529;51.530;11.754;2023-04-24T12:23:08;4.50;;;1.63;;
40074;SDS011;26529;51.530;11.754;2023-04-24T12:25:34;5.88;;;1.90;;
40074;SDS011;26529;51.530;11.754;2023-04-24T12:30:28;4.38;;;1.70;;
40074;SDS011;26529;51.530;11.754;2023-04-24T12:32:56;4.20;;;1.95;;
40074;SDS011;26529;51.530;11.754;2023-04-24T12:35:23;6.10;;;2.00;;
40074;SDS011;26529;51.530;11.754;2023-04-24T12:37:49;5.20;;;1.75;;
40074;SDS011;26529;51.530;11.754;2023-04-24T12:40:16;4.85;;;1.73;;
40074;SDS011;26529;51.530;11.754;2023-04-24T12:42:44;3.63;;;1.67;;
40074;SDS011;26529;51.530;11.754;2023-04-24T12:45:18;4.55;;;1.80;;
40074;SDS011;26529;51.530;11.754;2023-04-24T12:47:45;3.10;;;1.65;;
40074;SDS011;26529;51.530;11.754;2023-04-24T12:50:12;3.47;;;1.88;;
40074;SDS011;26529;51.530;11.754;2023-04-24T12:52:39;5.22;;;1.60;;
40074;SDS011;26529;51.530;11.754;2023-04-24T12:55:05;2.88;;;1.70;;
40074;SDS011;26529;51.530;11.754;2023-04-24T12:57:35;3.53;;;1.70;;
40074;SDS011;26529;51.530;11.754;2023-04-24T13:00:02;5.03;;;2.08;;
40074;SDS011;26529;51.530;11.754;2023-04-24T13:02:30;4.35;;;2.00;;
40074;SDS011;26529;51.530;11.754;2023-04-24T13:04:57;4.38;;;1.77;;
40074;SDS011;26529;51.530;11.754;2023-04-24T13:07:23;4.47;;;1.60;;
40074;SDS011;26529;51.530;11.754;2023-04-24T13:09:49;6.72;;;2.38;;
40074;SDS011;26529;51.530;11.754;2023-04-24T13:12:15;8.43;;;1.80;;
40074;SDS011;26529;51.530;11.754;2023-04-24T13:14:41;1.83;;;1.27;;
40074;SDS011;26529;51.530;11.754;2023-04-24T13:17:06;6.18;;;1.45;;
40074;SDS011;26529;51.530;11.754;2023-04-24T13:19:37;5.28;;;2.17;;
40074;SDS011;26529;51.530;11.754;2023-04-24T13:22:06;3.97;;;1.90;;
40074;SDS011;26529;51.530;11.754;2023-04-24T13:24:34;3.80;;;1.75;;
40074;SDS011;26529;51.530;11.754;2023-04-24T13:26:59;3.50;;;1.48;;
40074;SDS011;26529;51.530;11.754;2023-04-24T13:29:26;3.35;;;1.48;;
40074;SDS011;26529;51.530;11.754;2023-04-24T13:31:52;4.55;;;2.10;;
40074;SDS011;26529;51.530;11.754;2023-04-24T13:34:22;2.90;;;1.92;;
40074;SDS011;26529;51.530;11.754;2023-04-24T13:36:49;4.38;;;2.00;;
40074;SDS011;26529;51.530;11.754;2023-04-24T13:39:16;4.97;;;1.75;;
40074;SDS011;26529;51.530;11.754;2023-04-24T13:41:42;3.95;;;1.75;;
40074;SDS011;26529;51.530;11.754;2023-04-24T13:44:07;2.72;;;1.45;;
40074;SDS011;26529;51.530;11.754;2023-04-24T13:46:33;4.07;;;1.70;;
40074;SDS011;26529;51.530;11.754;2023-04-24T13:49:00;4.45;;;2.08;;
40074;SDS011;26529;51.530;11.754;2023-04-24T13:51:26;5.43;;;1.92;;
40074;SDS011;26529;51.530;11.754;2023-04-24T13:53:52;3.55;;;1.65;;
40074;SDS011;26529;51.530;11.754;2023-04-24T13:56:18;2.63;;;1.60;;
40074;SDS011;26529;51.530;11.754;2023-04-24T13:58:44;5.35;;;1.70;;
40074;SDS011;26529;51.530;11.754;2023-04-24T14:01:10;4.43;;;1.60;;
40074;SDS011;26529;51.530;11.754;2023-04-24T14:03:37;2.88;;;1.83;;
40074;SDS011;26529;51.530;11.754;2023-04-24T14:06:03;5.00;;;1.98;;
40074;SDS011;26529;51.530;11.754;2023-04-24T14:08:28;6.13;;;2.03;;
40074;SDS011;26529;51.530;11.754;2023-04-24T14:10:53;2.85;;;1.38;;
40074;SDS011;26529;51.530;11.754;2023-04-24T14:13:19;2.67;;;1.20;;
40074;SDS011;26529;51.530;11.754;2023-04-24T14:15:45;4.32;;;1.83;;
40074;SDS011;26529;51.530;11.754;2023-04-24T14:18:11;3.75;;;1.92;;
40074;SDS011;26529;51.530;11.754;2023-04-24T14:20:37;5.63;;;1.67;;
40074;SDS011;26529;51.530;11.754;2023-04-24T14:23:03;2.22;;;1.40;;
40074;SDS011;26529;51.530;11.754;2023-04-24T14:25:29;3.80;;;1.92;;
40074;SDS011;26529;51.530;11.754;2023-04-24T14:27:55;3.70;;;1.58;;
40074;SDS011;26529;51.530;11.754;2023-04-24T14:30:21;5.18;;;1.80;;
40074;SDS011;26529;51.530;11.754;2023-04-24T14:32:46;2.65;;;2.05;;
40074;SDS011;26529;51.530;11.754;2023-04-24T14:35:12;2.05;;;1.33;;
40074;SDS011;26529;51.530;11.754;2023-04-24T14:37:38;1.98;;;1.35;;
40074;SDS011;26529;51.530;11.754;2023-04-24T14:40:07;4.45;;;1.48;;
40074;SDS011;26529;51.530;11.754;2023-04-24T14:42:34;3.10;;;1.55;;
40074;SDS011;26529;51.530;11.754;2023-04-24T14:45:00;3.63;;;1.90;;
40074;SDS011;26529;51.530;11.754;2023-04-24T14:47:25;2.15;;;1.13;;
40074;SDS011;26529;51.530;11.754;2023-04-24T14:49:51;4.20;;;1.67;;
40074;SDS011;26529;51.530;11.754;2023-04-24T14:52:17;2.95;;;1.90;;